Libagon, Philippines
Current Conditions -  °F | °C
As of 6:00 PM on Saturday 01 Nov 2014 (Local Time) from RPVM Reporting Station
Broken Clouds Broken Clouds  
Wind Chill: 82°   Ceiling: 30000
Heat Index: 91°   Visibility: 6mi
Dew Point: 77°   Wind: 3mph
Humidity: 84%   Direction: 200°SSW
Pressure: 29.74"   Gusts: NA
Location:  10.3°N, 125.06°E
Report Text: RPVM 011000Z 20003KT 9999 FEW020 BKN300 28/25 Q1007 RMK A2974
Loading
Personal Weather Stations






























Interactive Weather Map
Tropical Storm Tracking
New forecast layout! Learn more

10-Day Weather Forecast

Advertisements
Track Severe Weather on mobile